EDT,Max TemperatureF,Mean TemperatureF,Min TemperatureF,Max Dew PointF,MeanDew PointF,Min DewpointF,Max Humidity, Mean Humidity, Min Humidity, Max Sea Level PressureIn, Mean Sea Level PressureIn, Min Sea Level PressureIn, Max VisibilityMiles, Mean VisibilityMiles, Min VisibilityMiles, Max Wind SpeedMPH, Mean Wind SpeedMPH, Max Gust SpeedMPH,PrecipitationIn, CloudCover, Events, WindDirDegrees
2013-3-1,29,27,24,20,18,15,78,73,68,30.16,30.09,29.99,10,10,10,16,8,21,T,8,,17
2013-3-2,25,22,18,16,14,12,77,73,68,30.14,30.13,30.08,10,10,8,13,7,16,T,8,,326
2013-3-3,30,24,17,13,12,11,80,64,47,30.11,30.08,30.04,10,10,10,15,6,20,T,5,,330
2013-3-4,32,22,11,14,11,7,84,66,47,30.19,30.14,30.09,10,10,10,7,2,14,0.00,0,,332
2013-3-5,35,26,16,22,18,10,84,70,56,30.15,30.00,29.87,10,10,10,22,11,28,0.00,4,,66
2013-3-6,35,31,27,27,24,21,81,73,64,30.24,30.11,29.90,10,10,10,21,7,26,0.00,8,,8
2013-3-7,36,32,27,27,22,18,85,68,51,30.43,30.34,30.23,10,10,10,16,6,23,T,7,,327
2013-3-8,43,31,18,23,19,14,84,62,39,30.54,30.48,30.43,10,10,10,7,1,10,0.00,0,,40
2013-3-9,43,34,24,30,26,20,81,67,53,30.41,30.25,30.01,10,10,10,18,10,24,T,3,Rain,142
2013-3-10,56,47,38,42,37,30,76,65,54,29.99,29.88,29.73,10,9,5,20,10,28,0.08,6,Rain,171
2013-3-11,54,45,35,48,42,30,93,76,59,29.73,29.59,29.47,10,7,2,24,11,30,0.41,8,Rain,201
2013-3-12,35,32,28,31,26,21,92,78,63,29.92,29.81,29.66,10,7,1,17,13,24,0.03,8,Snow,247
2013-3-13,32,27,22,27,18,10,85,67,49,30.25,30.01,29.87,10,6,1,22,12,29,0.01,6,Snow,290
2013-3-14,40,30,19,20,16,12,84,62,40,30.30,30.21,30.08,10,10,2,12,7,23,0.00,1,,276
2013-3-15,38,35,31,32,29,17,92,73,54,30.06,29.91,29.84,10,4,1,14,9,20,0.12,8,Rain-Snow,276
2013-3-16,31,28,24,29,24,17,92,78,63,30.08,29.85,29.77,10,5,0,17,9,22,0.11,8,Fog-Snow,37
2013-3-17,29,24,19,16,13,10,77,64,50,30.31,30.22,30.10,10,10,10,15,9,18,0.00,2,,52
2013-3-18,33,26,19,31,24,12,89,79,68,30.18,29.76,29.56,10,5,1,26,12,35,0.10,7,Rain-Snow,120
2013-3-19,32,27,21,28,17,14,85,74,63,29.96,29.77,29.59,10,4,0,31,19,40,0.05,8,Fog-Rain-Snow,252
2013-3-20,25,20,14,16,12,9,88,71,54,29.99,29.95,29.91,10,6,1,24,12,30,T,6,Snow,270
2013-3-21,30,22,14,21,17,10,88,76,63,29.98,29.91,29.86,10,8,2,20,12,25,0.01,8,Snow,279
2013-3-22,37,31,24,21,18,15,81,65,48,30.06,30.00,29.95,10,9,2,15,9,21,T,6,Snow,286
2013-3-23,32,27,21,22,20,18,88,76,63,30.16,30.10,30.03,10,10,10,9,4,13,0.00,6,,336
2013-3-24,36,29,21,25,21,17,92,74,56,30.06,29.89,29.69,10,10,10,24,11,31,0.00,5,,48
2013-3-25,38,34,29,30,24,21,89,72,54,29.98,29.78,29.61,10,9,2,26,13,33,0.01,8,Snow,15
2013-3-26,41,34,27,30,27,23,89,74,59,30.16,30.07,29.98,10,10,5,16,8,21,0.01,8,Snow,297
2013-3-27,47,38,29,26,24,21,85,63,41,30.25,30.20,30.17,10,10,10,21,12,28,0.00,2,,287
2013-3-28,50,39,28,26,23,21,78,56,33,30.30,30.27,30.25,10,10,10,15,8,21,0.00,0,,296
2013-3-29,51,38,25,24,20,17,75,51,26,30.32,30.28,30.23,10,10,10,12,5,20,0.00,1,,280
2013-3-30,55,40,24,29,22,16,85,54,22,30.24,30.12,29.92,10,10,5,16,7,21,0.00,1,,212
2013-3-31,55,45,35,41,35,27,96,71,46,29.89,29.72,29.66,10,7,2,23,13,31,0.02,7,Rain,243